Time;durP1;ratioP1;P1;durP2;ratioP2;P2;SDS_P1;SDS_P2;PMS_P1;PMS_P2;Temp;Humidity;BMP_temperature;BMP_pressure;BME280_temperature;BME280_humidity;BME280_pressure;Samples;Min_cycle;Max_cycle;Signal;HPM_P1;HPM_P2
2022/07/16 00:03:47;;;;;;;4.22;3.78;;;;;;;;;;5035292;28;20498;-75
2022/07/16 00:06:13;;;;;;;4.70;4.32;;;;;;;;;;5039909;28;20036;-77
2022/07/16 00:08:38;;;;;;;4.10;3.80;;;;;;;;;;5039447;28;20444;-76
2022/07/16 00:11:03;;;;;;;4.32;4.00;;;;;;;;;;5039715;28;20037;-75
2022/07/16 00:13:29;;;;;;;4.80;4.40;;;;;;;;;;5039065;28;20017;-77
2022/07/16 00:15:55;;;;;;;4.53;4.05;;;;;;;;;;5033485;28;20060;-77
2022/07/16 00:21:04;;;;;;;4.82;4.22;;;;;;;;;;5038963;28;20043;-78
2022/07/16 00:23:30;;;;;;;4.75;4.22;;;;;;;;;;5039073;28;20036;-73
2022/07/16 00:25:55;;;;;;;4.00;3.55;;;;;;;;;;5031674;28;20040;-78
2022/07/16 00:28:21;;;;;;;4.20;3.72;;;;;;;;;;5038094;28;20062;-77
2022/07/16 00:30:46;;;;;;;7.75;4.43;;;;;;;;;;5033505;28;20021;-75
2022/07/16 00:33:11;;;;;;;5.95;4.32;;;;;;;;;;5032201;28;20032;-75
2022/07/16 00:35:37;;;;;;;4.43;4.07;;;;;;;;;;5037656;28;20132;-76
2022/07/16 00:38:02;;;;;;;4.45;4.07;;;;;;;;;;5039414;28;20061;-75
2022/07/16 00:40:27;;;;;;;4.35;4.00;;;;;;;;;;5039038;28;20028;-75
2022/07/16 00:42:53;;;;;;;4.60;4.10;;;;;;;;;;5039965;28;20146;-77
2022/07/16 00:45:18;;;;;;;4.80;4.40;;;;;;;;;;5036059;28;20082;-76
2022/07/16 00:47:43;;;;;;;4.72;4.32;;;;;;;;;;5027036;28;20029;-78
2022/07/16 00:50:09;;;;;;;3.80;3.50;;;;;;;;;;5032206;28;20025;-77
2022/07/16 00:52:35;;;;;;;4.80;4.20;;;;;;;;;;5039999;28;20063;-76
2022/07/16 00:55:00;;;;;;;8.90;4.70;;;;;;;;;;5038227;28;20029;-78
2022/07/16 00:57:26;;;;;;;5.15;3.70;;;;;;;;;;5039597;28;20047;-76
2022/07/16 00:59:51;;;;;;;4.18;3.88;;;;;;;;;;5038390;28;20044;-76
2022/07/16 01:02:16;;;;;;;5.78;4.18;;;;;;;;;;5028535;28;20079;-76
2022/07/16 01:04:42;;;;;;;5.55;4.53;;;;;;;;;;5038587;28;20075;-76
2022/07/16 01:07:08;;;;;;;4.60;4.28;;;;;;;;;;5034300;28;20052;-77
2022/07/16 01:09:34;;;;;;;4.53;4.18;;;;;;;;;;5033355;28;20021;-77
2022/07/16 01:11:59;;;;;;;4.40;4.00;;;;;;;;;;5038194;28;20056;-76
2022/07/16 01:14:25;;;;;;;6.72;4.38;;;;;;;;;;5033333;28;20029;-78
2022/07/16 01:16:50;;;;;;;4.70;4.35;;;;;;;;;;5029031;28;20419;-76
2022/07/16 01:19:16;;;;;;;4.57;4.00;;;;;;;;;;5033222;28;20031;-76
2022/07/16 01:21:43;;;;;;;4.65;4.25;;;;;;;;;;5039922;28;20118;-76
2022/07/16 01:24:08;;;;;;;5.70;4.30;;;;;;;;;;5038649;28;20115;-77
2022/07/16 01:26:33;;;;;;;4.03;3.67;;;;;;;;;;5038329;28;20405;-76
2022/07/16 01:28:59;;;;;;;4.25;3.85;;;;;;;;;;5038821;28;20043;-76
2022/07/16 01:31:24;;;;;;;4.70;4.30;;;;;;;;;;5035717;28;20029;-76
2022/07/16 01:34:24;;;;;;;4.65;4.25;;;;;;;;;;5032286;28;20022;-75
2022/07/16 01:36:35;;;;;;;4.47;4.07;;;;;;;;;;5037704;28;20381;-75
2022/07/16 01:39:00;;;;;;;4.47;4.15;;;;;;;;;;5030274;28;20025;-76
2022/07/16 01:41:26;;;;;;;4.72;4.32;;;;;;;;;;5037786;28;20521;-75
2022/07/16 01:43:51;;;;;;;4.60;4.07;;;;;;;;;;5038412;28;20021;-76
2022/07/16 01:46:17;;;;;;;4.57;4.28;;;;;;;;;;5027509;28;20037;-76
2022/07/16 01:48:42;;;;;;;5.68;4.75;;;;;;;;;;5029972;28;20028;-75
2022/07/16 01:51:07;;;;;;;4.70;4.30;;;;;;;;;;5037560;28;20037;-76
2022/07/16 01:53:33;;;;;;;4.63;4.22;;;;;;;;;;5037963;28;20049;-75
2022/07/16 01:55:58;;;;;;;4.60;4.20;;;;;;;;;;5038345;28;20097;-76
2022/07/16 01:58:24;;;;;;;4.97;4.57;;;;;;;;;;5037385;28;20056;-75
2022/07/16 02:00:49;;;;;;;5.05;4.50;;;;;;;;;;5039410;28;20028;-75
2022/07/16 02:03:14;;;;;;;4.68;4.20;;;;;;;;;;5032583;28;20028;-77
2022/07/16 02:05:40;;;;;;;4.75;4.35;;;;;;;;;;5042272;28;20036;-76
2022/07/16 02:08:06;;;;;;;4.88;4.38;;;;;;;;;;5042479;28;20508;-78
2022/07/16 02:10:31;;;;;;;5.00;4.60;;;;;;;;;;5033888;28;20176;-78
2022/07/16 02:12:57;;;;;;;4.85;4.45;;;;;;;;;;5039790;28;20017;-77
2022/07/16 02:15:22;;;;;;;4.68;3.95;;;;;;;;;;5021549;28;20044;-76
2022/07/16 02:17:48;;;;;;;6.22;4.20;;;;;;;;;;5030945;28;20060;-77
2022/07/16 02:20:13;;;;;;;4.47;4.10;;;;;;;;;;5038960;28;20074;-77
2022/07/16 02:22:39;;;;;;;4.32;4.03;;;;;;;;;;5034156;28;20032;-77
2022/07/16 02:25:05;;;;;;;6.07;4.10;;;;;;;;;;5041706;28;20029;-78
2022/07/16 02:27:30;;;;;;;4.13;3.80;;;;;;;;;;5039166;28;20063;-77
2022/07/16 02:29:56;;;;;;;4.15;3.85;;;;;;;;;;5030139;28;20075;-78
2022/07/16 02:32:21;;;;;;;4.30;3.90;;;;;;;;;;5035138;28;20087;-77
2022/07/16 02:34:48;;;;;;;4.35;3.95;;;;;;;;;;5032978;28;20032;-75
2022/07/16 02:37:14;;;;;;;5.90;4.18;;;;;;;;;;5041271;28;20089;-73
2022/07/16 02:39:39;;;;;;;4.53;4.13;;;;;;;;;;5041584;28;20028;-75
2022/07/16 02:42:04;;;;;;;4.55;4.03;;;;;;;;;;5048419;28;20040;-76
2022/07/16 02:44:30;;;;;;;7.30;3.80;;;;;;;;;;5037558;28;20352;-77
2022/07/16 02:46:55;;;;;;;5.15;4.55;;;;;;;;;;5029453;28;20046;-75
2022/07/16 02:49:20;;;;;;;10.15;4.68;;;;;;;;;;5029679;28;20028;-75
2022/07/16 02:51:46;;;;;;;8.02;4.20;;;;;;;;;;5041356;28;20025;-75
2022/07/16 02:54:11;;;;;;;8.07;4.28;;;;;;;;;;5041437;28;20450;-75
2022/07/16 02:56:36;;;;;;;6.05;5.57;;;;;;;;;;5041012;28;20032;-76
2022/07/16 02:59:02;;;;;;;9.38;7.57;;;;;;;;;;5040796;28;20032;-77
2022/07/16 03:01:27;;;;;;;10.32;9.30;;;;;;;;;;5040405;28;20032;-75
2022/07/16 03:03:53;;;;;;;5.75;5.25;;;;;;;;;;5029774;28;20021;-77
2022/07/16 03:06:18;;;;;;;5.38;4.82;;;;;;;;;;5031536;28;20079;-76
2022/07/16 03:08:44;;;;;;;4.63;4.32;;;;;;;;;;5041162;28;20044;-76
2022/07/16 03:11:09;;;;;;;5.20;4.80;;;;;;;;;;5040885;28;20040;-75
2022/07/16 03:13:34;;;;;;;5.57;5.03;;;;;;;;;;5038672;28;20120;-76
2022/07/16 03:16:00;;;;;;;6.82;4.60;;;;;;;;;;5033661;28;20025;-76
2022/07/16 03:18:25;;;;;;;5.63;5.10;;;;;;;;;;5032511;28;20626;-76
2022/07/16 03:20:50;;;;;;;5.72;5.00;;;;;;;;;;5037921;28;20044;-77
2022/07/16 03:23:16;;;;;;;5.65;5.15;;;;;;;;;;5027935;28;20033;-76
2022/07/16 03:25:41;;;;;;;5.90;5.25;;;;;;;;;;5038286;28;20473;-77
2022/07/16 03:28:08;;;;;;;6.38;5.18;;;;;;;;;;5039946;28;20021;-76
2022/07/16 03:30:33;;;;;;;4.93;4.47;;;;;;;;;;5044837;28;20025;-76
2022/07/16 03:32:58;;;;;;;5.30;4.80;;;;;;;;;;5031848;28;20445;-76
2022/07/16 03:35:24;;;;;;;6.68;5.78;;;;;;;;;;5040268;28;20078;-77
2022/07/16 03:40:33;;;;;;;10.40;7.60;;;;;;;;;;5030159;28;20032;-74
2022/07/16 03:42:58;;;;;;;10.07;8.75;;;;;;;;;;5037608;28;20024;-75
2022/07/16 03:45:24;;;;;;;14.98;10.82;;;;;;;;;;5033936;28;20021;-75
2022/07/16 03:47:49;;;;;;;14.75;8.82;;;;;;;;;;5029235;28;20056;-75
2022/07/16 03:50:14;;;;;;;8.80;7.00;;;;;;;;;;5037647;28;20407;-76
2022/07/16 03:52:40;;;;;;;5.75;5.10;;;;;;;;;;5039361;28;20517;-76
2022/07/16 03:55:05;;;;;;;7.28;6.10;;;;;;;;;;5034495;28;20032;-76
2022/07/16 03:57:31;;;;;;;8.75;5.68;;;;;;;;;;5034786;28;20028;-76
2022/07/16 03:59:56;;;;;;;6.75;5.55;;;;;;;;;;5040279;28;20041;-76
2022/07/16 04:02:22;;;;;;;7.30;4.65;;;;;;;;;;5041051;28;20029;-80
2022/07/16 04:04:47;;;;;;;6.70;5.40;;;;;;;;;;5046821;28;20036;-78
2022/07/16 04:07:12;;;;;;;6.97;5.57;;;;;;;;;;5040173;28;20456;-75
2022/07/16 04:09:38;;;;;;;6.18;5.57;;;;;;;;;;5024877;28;20086;-76
2022/07/16 04:12:03;;;;;;;7.75;5.60;;;;;;;;;;5030967;28;20055;-77
2022/07/16 04:14:28;;;;;;;6.20;5.20;;;;;;;;;;5031569;28;20025;-76
2022/07/16 04:16:54;;;;;;;4.93;4.20;;;;;;;;;;5029450;28;20032;-77
2022/07/16 04:19:19;;;;;;;6.70;4.25;;;;;;;;;;5030185;28;20437;-77
2022/07/16 04:21:44;;;;;;;4.20;3.80;;;;;;;;;;5027979;28;20462;-77
2022/07/16 04:24:10;;;;;;;4.38;3.97;;;;;;;;;;5027373;28;20151;-77
2022/07/16 04:26:35;;;;;;;8.48;4.93;;;;;;;;;;5034540;28;20107;-77
2022/07/16 04:29:00;;;;;;;8.80;5.30;;;;;;;;;;5039814;28;20107;-77
2022/07/16 04:31:26;;;;;;;5.55;5.05;;;;;;;;;;5039372;28;20029;-78
2022/07/16 04:33:51;;;;;;;5.28;3.90;;;;;;;;;;5039589;28;20037;-77
2022/07/16 04:36:16;;;;;;;3.70;3.40;;;;;;;;;;5039997;28;20083;-78
2022/07/16 04:38:42;;;;;;;3.55;3.25;;;;;;;;;;5040408;28;20544;-77
2022/07/16 04:41:07;;;;;;;7.75;4.70;;;;;;;;;;5036764;28;20086;-78
2022/07/16 04:43:32;;;;;;;7.78;4.60;;;;;;;;;;5033215;28;20021;-78
2022/07/16 04:45:58;;;;;;;7.97;5.20;;;;;;;;;;5039368;28;20472;-79
2022/07/16 04:48:23;;;;;;;7.20;5.57;;;;;;;;;;5037725;28;20032;-78
2022/07/16 04:50:49;;;;;;;7.13;4.95;;;;;;;;;;5041048;28;20071;-78
2022/07/16 04:53:14;;;;;;;8.02;6.65;;;;;;;;;;5033620;28;20076;-76
2022/07/16 04:55:39;;;;;;;10.57;8.60;;;;;;;;;;5035385;28;20339;-77
2022/07/16 04:58:05;;;;;;;7.20;6.50;;;;;;;;;;5040175;28;20095;-76
2022/07/16 05:00:30;;;;;;;6.93;5.47;;;;;;;;;;5037194;28;20075;-77
2022/07/16 05:02:58;;;;;;;7.90;5.50;;;;;;;;;;5037503;28;20028;-77
2022/07/16 05:05:25;;;;;;;5.18;4.43;;;;;;;;;;5030494;28;20032;-77
2022/07/16 05:07:50;;;;;;;8.80;4.90;;;;;;;;;;5039521;28;20432;-77
2022/07/16 05:10:15;;;;;;;7.80;4.70;;;;;;;;;;5038767;28;20036;-77
2022/07/16 05:12:41;;;;;;;6.68;4.78;;;;;;;;;;5039262;28;20462;-77
2022/07/16 05:15:06;;;;;;;5.10;3.75;;;;;;;;;;5038992;28;20072;-76
2022/07/16 05:17:32;;;;;;;6.82;3.75;;;;;;;;;;5031631;28;20435;-75
2022/07/16 05:19:57;;;;;;;5.53;3.78;;;;;;;;;;5027529;28;20050;-75
2022/07/16 05:22:22;;;;;;;8.48;3.50;;;;;;;;;;5028341;28;20033;-76
2022/07/16 05:24:48;;;;;;;5.72;3.28;;;;;;;;;;5031318;28;20036;-76
2022/07/16 05:27:13;;;;;;;4.88;3.15;;;;;;;;;;5029775;28;20024;-76
2022/07/16 05:29:38;;;;;;;3.45;2.47;;;;;;;;;;5033860;28;20020;-77
2022/07/16 05:32:04;;;;;;;3.35;3.05;;;;;;;;;;5035177;28;20558;-78
2022/07/16 05:34:30;;;;;;;4.78;3.15;;;;;;;;;;5039173;28;20029;-79
2022/07/16 05:36:55;;;;;;;5.53;3.20;;;;;;;;;;5043337;28;20032;-77
2022/07/16 05:39:20;;;;;;;5.45;3.15;;;;;;;;;;5043289;28;20115;-77
2022/07/16 05:41:46;;;;;;;3.65;2.95;;;;;;;;;;5037843;28;20029;-76
2022/07/16 05:44:11;;;;;;;5.63;3.50;;;;;;;;;;5039410;28;20029;-76
2022/07/16 05:46:36;;;;;;;4.18;3.78;;;;;;;;;;5033032;28;20108;-77
2022/07/16 05:49:02;;;;;;;4.38;3.38;;;;;;;;;;5040539;28;20115;-74
2022/07/16 05:51:28;;;;;;;7.50;3.38;;;;;;;;;;5039072;28;20090;-76
2022/07/16 05:53:53;;;;;;;5.47;3.90;;;;;;;;;;5036198;28;20472;-74
2022/07/16 05:56:18;;;;;;;6.00;3.97;;;;;;;;;;5037360;28;20057;-76
2022/07/16 05:58:44;;;;;;;3.97;3.22;;;;;;;;;;5033144;28;20025;-75
2022/07/16 06:01:09;;;;;;;4.28;2.80;;;;;;;;;;5030461;28;20021;-73
2022/07/16 06:03:36;;;;;;;4.28;2.45;;;;;;;;;;5019098;28;20025;-73
2022/07/16 06:06:01;;;;;;;5.10;2.47;;;;;;;;;;5039678;28;20027;-73
2022/07/16 06:08:27;;;;;;;5.88;2.65;;;;;;;;;;5042066;28;20021;-75
2022/07/16 06:10:52;;;;;;;5.90;2.60;;;;;;;;;;5041344;28;20025;-74
2022/07/16 06:13:17;;;;;;;5.13;2.38;;;;;;;;;;5037694;28;20118;-73
2022/07/16 06:15:43;;;;;;;4.45;2.60;;;;;;;;;;5032571;28;20436;-72
2022/07/16 06:18:08;;;;;;;3.75;2.42;;;;;;;;;;5032549;28;20137;-70
2022/07/16 06:20:33;;;;;;;3.00;2.80;;;;;;;;;;5041467;28;20057;-73
2022/07/16 06:22:59;;;;;;;3.15;2.40;;;;;;;;;;5041432;28;20044;-70
2022/07/16 06:25:24;;;;;;;2.38;2.17;;;;;;;;;;5041368;28;20045;-71
2022/07/16 06:27:50;;;;;;;2.80;2.60;;;;;;;;;;5039646;28;20029;-72
2022/07/16 06:30:15;;;;;;;3.20;2.53;;;;;;;;;;5041511;28;20074;-72
2022/07/16 06:32:41;;;;;;;4.63;2.35;;;;;;;;;;5041387;28;20045;-72
2022/07/16 06:35:07;;;;;;;2.42;2.13;;;;;;;;;;5026371;28;20048;-74
2022/07/16 06:37:32;;;;;;;4.03;3.03;;;;;;;;;;5038174;28;20031;-74
2022/07/16 06:39:57;;;;;;;5.45;2.60;;;;;;;;;;5033302;28;20021;-76
2022/07/16 06:42:23;;;;;;;6.15;2.42;;;;;;;;;;5030735;28;21380;-75
2022/07/16 06:44:48;;;;;;;5.93;2.42;;;;;;;;;;5039533;28;20024;-73
2022/07/16 06:47:13;;;;;;;4.93;2.60;;;;;;;;;;5040224;28;20028;-72
2022/07/16 06:49:39;;;;;;;3.88;2.40;;;;;;;;;;5041121;28;20029;-72
2022/07/16 06:52:04;;;;;;;3.70;2.60;;;;;;;;;;5040882;28;20048;-72
2022/07/16 06:54:30;;;;;;;5.32;2.47;;;;;;;;;;5040839;28;20028;-73
2022/07/16 06:56:56;;;;;;;3.22;2.70;;;;;;;;;;5028271;28;20064;-72
2022/07/16 06:59:21;;;;;;;2.67;2.47;;;;;;;;;;5040611;28;20138;-73
2022/07/16 07:01:47;;;;;;;5.00;2.50;;;;;;;;;;5033663;28;20029;-73
2022/07/16 07:04:12;;;;;;;3.85;2.40;;;;;;;;;;5032658;28;20025;-77
2022/07/16 07:06:37;;;;;;;3.22;2.75;;;;;;;;;;5032558;28;20104;-78
2022/07/16 07:09:03;;;;;;;3.97;2.40;;;;;;;;;;5040275;28;20349;-70
2022/07/16 07:11:28;;;;;;;2.88;2.25;;;;;;;;;;5030818;28;20029;-72
2022/07/16 07:13:53;;;;;;;3.67;2.38;;;;;;;;;;5036263;28;20394;-73
2022/07/16 07:16:19;;;;;;;2.90;2.60;;;;;;;;;;5040815;28;20025;-71
2022/07/16 07:18:44;;;;;;;6.18;2.58;;;;;;;;;;5039045;28;20032;-71
2022/07/16 07:21:10;;;;;;;6.50;2.53;;;;;;;;;;5032896;28;20033;-72
2022/07/16 07:23:35;;;;;;;5.30;2.58;;;;;;;;;;5033468;28;20125;-72
2022/07/16 07:26:00;;;;;;;3.03;2.17;;;;;;;;;;5039249;28;20128;-71
2022/07/16 07:28:28;;;;;;;2.92;2.45;;;;;;;;;;5030885;28;20115;-72
2022/07/16 07:30:53;;;;;;;2.83;2.50;;;;;;;;;;5027218;28;20403;-71
2022/07/16 07:33:19;;;;;;;3.25;2.10;;;;;;;;;;5040940;28;20025;-71
2022/07/16 07:35:44;;;;;;;5.60;2.72;;;;;;;;;;5033016;28;20364;-70
2022/07/16 07:38:09;;;;;;;2.70;2.50;;;;;;;;;;5027859;28;20996;-70
2022/07/16 07:40:35;;;;;;;5.78;2.92;;;;;;;;;;5032106;28;20052;-71
2022/07/16 07:43:00;;;;;;;4.15;2.70;;;;;;;;;;5031300;28;20036;-71
2022/07/16 07:45:26;;;;;;;2.30;2.10;;;;;;;;;;5039797;28;20106;-71
2022/07/16 07:47:52;;;;;;;3.95;2.42;;;;;;;;;;5040911;28;20029;-72
2022/07/16 07:50:17;;;;;;;6.22;2.60;;;;;;;;;;5040301;28;20028;-74
2022/07/16 07:52:42;;;;;;;4.70;2.70;;;;;;;;;;5038726;28;20497;-76
2022/07/16 07:55:08;;;;;;;3.58;2.72;;;;;;;;;;5041006;28;20033;-73
2022/07/16 07:57:33;;;;;;;3.00;2.70;;;;;;;;;;5037779;28;20033;-72
2022/07/16 07:59:59;;;;;;;3.80;2.30;;;;;;;;;;5029924;28;20028;-77
2022/07/16 08:02:25;;;;;;;4.78;3.90;;;;;;;;;;5040779;28;20360;-73
2022/07/16 08:04:50;;;;;;;5.15;2.58;;;;;;;;;;5040766;28;20035;-75
2022/07/16 08:07:16;;;;;;;8.18;7.38;;;;;;;;;;5040162;28;20060;-73
2022/07/16 08:09:41;;;;;;;4.60;4.15;;;;;;;;;;5039981;28;20055;-74
2022/07/16 08:12:06;;;;;;;3.08;2.60;;;;;;;;;;5039289;28;20067;-76
2022/07/16 08:14:32;;;;;;;5.35;3.00;;;;;;;;;;5039513;28;20110;-73
2022/07/16 08:16:58;;;;;;;4.35;2.83;;;;;;;;;;5039736;28;20047;-74
2022/07/16 08:19:23;;;;;;;7.45;2.97;;;;;;;;;;5039497;28;20356;-74
2022/07/16 08:21:49;;;;;;;4.28;2.33;;;;;;;;;;5040040;28;20047;-75
2022/07/16 08:26:59;;;;;;;2.50;2.30;;;;;;;;;;5040561;28;20060;-75
2022/07/16 08:29:25;;;;;;;5.15;2.80;;;;;;;;;;5037125;28;20433;-73
2022/07/16 08:31:50;;;;;;;3.40;2.60;;;;;;;;;;5030262;28;20672;-72
2022/07/16 08:34:15;;;;;;;11.13;2.80;;;;;;;;;;5027325;28;20048;-77
2022/07/16 08:36:41;;;;;;;2.58;2.38;;;;;;;;;;5026966;28;20032;-72
2022/07/16 08:39:06;;;;;;;3.35;2.25;;;;;;;;;;5031382;28;20024;-76
2022/07/16 08:41:32;;;;;;;5.25;2.75;;;;;;;;;;5034741;28;20062;-73
2022/07/16 08:43:58;;;;;;;4.20;2.38;;;;;;;;;;5032654;28;20078;-73
2022/07/16 08:46:23;;;;;;;3.20;2.25;;;;;;;;;;5028984;28;20492;-74
2022/07/16 08:48:49;;;;;;;5.60;2.50;;;;;;;;;;5041214;28;20057;-74
2022/07/16 08:51:18;;;;;;;3.45;2.78;;;;;;;;;;5027803;28;20029;-75
2022/07/16 08:53:43;;;;;;;;;;;;;;;;;;5030043;28;20049;-71
2022/07/16 08:56:08;;;;;;;3.80;2.87;;;;;;;;;;5039391;28;19916;-73
2022/07/16 08:58:35;;;;;;;7.53;2.70;;;;;;;;;;5030880;28;20033;-73
2022/07/16 09:01:00;;;;;;;4.05;2.50;;;;;;;;;;5026811;28;20075;-72
2022/07/16 09:03:26;;;;;;;5.32;2.67;;;;;;;;;;5023510;28;20470;-71
2022/07/16 09:05:51;;;;;;;2.95;2.42;;;;;;;;;;5031094;28;20029;-74
2022/07/16 09:08:17;;;;;;;3.88;2.42;;;;;;;;;;5039872;28;20024;-75
2022/07/16 09:10:42;;;;;;;3.65;2.28;;;;;;;;;;5039254;28;20353;-74
2022/07/16 09:13:11;;;;;;;4.28;2.40;;;;;;;;;;5030904;28;20052;-73
2022/07/16 09:15:38;;;;;;;3.17;2.40;;;;;;;;;;5026403;28;20040;-71
2022/07/16 09:18:14;;;;;;;3.65;2.17;;;;;;;;;;5027527;28;20040;-76
2022/07/16 09:20:44;;;;;;;2.83;2.28;;;;;;;;;;5027128;28;20025;-73
2022/07/16 09:23:35;;;;;;;6.90;2.58;;;;;;;;;;5026731;28;20381;-75
2022/07/16 09:26:02;;;;;;;2.60;2.40;;;;;;;;;;5022845;28;20053;-70
2022/07/16 09:28:38;;;;;;;2.35;2.15;;;;;;;;;;5026127;28;20440;-74
2022/07/16 09:31:04;;;;;;;5.55;2.30;;;;;;;;;;5026518;28;20029;-73
2022/07/16 09:33:30;;;;;;;3.30;2.55;;;;;;;;;;5027602;28;20032;-71
2022/07/16 09:36:06;;;;;;;2.88;2.47;;;;;;;;;;5027455;28;20392;-74
2022/07/16 09:38:45;;;;;;;2.30;2.10;;;;;;;;;;5020859;28;20032;-71
2022/07/16 09:41:14;;;;;;;2.97;2.50;;;;;;;;;;5025695;28;20104;-71
2022/07/16 09:43:40;;;;;;;3.15;2.70;;;;;;;;;;5025974;28;20086;-71
2022/07/16 09:46:05;;;;;;;3.58;2.38;;;;;;;;;;5026644;28;20735;-74
2022/07/16 09:48:35;;;;;;;1.98;1.88;;;;;;;;;;5026341;28;20025;-71
2022/07/16 09:51:17;;;;;;;6.75;2.13;;;;;;;;;;5025859;28;20025;-72
2022/07/16 09:53:43;;;;;;;3.35;2.22;;;;;;;;;;5027100;28;20048;-72
2022/07/16 09:56:11;;;;;;;6.63;2.33;;;;;;;;;;5023036;28;20087;-74
2022/07/16 09:58:36;;;;;;;3.88;2.33;;;;;;;;;;5010053;28;20033;-73
2022/07/16 10:01:08;;;;;;;3.47;2.15;;;;;;;;;;5025754;28;20351;-70
2022/07/16 10:03:35;;;;;;;4.15;2.17;;;;;;;;;;5027022;28;20021;-74
2022/07/16 10:06:00;;;;;;;6.55;2.30;;;;;;;;;;5018711;28;20044;-73
2022/07/16 10:08:26;;;;;;;2.22;1.80;;;;;;;;;;5029304;28;20031;-71
2022/07/16 10:10:52;;;;;;;2.67;1.75;;;;;;;;;;5027129;28;20021;-73
2022/07/16 10:13:22;;;;;;;2.40;2.00;;;;;;;;;;5028925;28;20056;-72
2022/07/16 10:15:47;;;;;;;2.28;1.90;;;;;;;;;;5028248;28;20062;-73
2022/07/16 10:18:39;;;;;;;1.77;1.65;;;;;;;;;;5030164;28;20033;-74
2022/07/16 10:21:19;;;;;;;5.47;1.70;;;;;;;;;;4966826;28;20056;-73
2022/07/16 10:23:47;;;;;;;1.85;1.65;;;;;;;;;;4970748;28;20053;-73
2022/07/16 10:26:14;;;;;;;3.33;1.55;;;;;;;;;;4954258;28;20504;-76
2022/07/16 10:28:43;;;;;;;1.92;1.83;;;;;;;;;;4972206;28;20027;-73
2022/07/16 10:31:26;;;;;;;1.95;1.77;;;;;;;;;;4970570;28;20049;-74
2022/07/16 10:34:11;;;;;;;2.20;1.70;;;;;;;;;;4973608;28;20069;-76
2022/07/16 10:36:47;;;;;;;4.45;1.70;;;;;;;;;;4954609;28;20046;-73
2022/07/16 10:39:15;;;;;;;1.63;1.52;;;;;;;;;;4971034;28;20465;-73
2022/07/16 10:42:01;;;;;;;1.92;1.50;;;;;;;;;;4970975;28;20035;-73
2022/07/16 10:44:42;;;;;;;1.58;1.48;;;;;;;;;;4972295;28;20141;-73
2022/07/16 10:47:08;;;;;;;3.65;1.73;;;;;;;;;;4972556;28;20355;-74
2022/07/16 10:49:33;;;;;;;1.98;1.88;;;;;;;;;;4974608;28;20149;-75
2022/07/16 10:52:14;;;;;;;2.47;1.83;;;;;;;;;;4999198;28;20120;-77
2022/07/16 10:54:51;;;;;;;4.50;1.50;;;;;;;;;;5043030;28;20119;-74
2022/07/16 10:57:17;;;;;;;1.92;1.75;;;;;;;;;;5041351;28;20029;-75
2022/07/16 10:59:46;;;;;;;1.70;1.50;;;;;;;;;;5048709;28;20031;-74
2022/07/16 11:02:13;;;;;;;3.60;1.52;;;;;;;;;;5030942;28;20028;-73
2022/07/16 11:04:48;;;;;;;2.08;1.58;;;;;;;;;;5028230;28;20057;-75
2022/07/16 11:07:14;;;;;;;1.80;1.70;;;;;;;;;;5036332;28;20033;-75
2022/07/16 11:09:41;;;;;;;4.55;1.60;;;;;;;;;;5028331;28;20290;-75
2022/07/16 11:12:11;;;;;;;2.30;1.67;;;;;;;;;;5033040;28;20086;-71
2022/07/16 11:14:37;;;;;;;2.03;1.45;;;;;;;;;;5034243;28;20356;-74
2022/07/16 11:17:02;;;;;;;1.85;1.52;;;;;;;;;;5039525;28;20033;-76
2022/07/16 11:19:28;;;;;;;2.50;1.17;;;;;;;;;;5040813;28;20037;-77
2022/07/16 11:21:58;;;;;;;2.45;1.63;;;;;;;;;;5030244;28;20487;-76
2022/07/16 11:24:24;;;;;;;2.97;1.45;;;;;;;;;;5042632;28;20021;-77
2022/07/16 11:26:51;;;;;;;1.60;1.50;;;;;;;;;;5043071;28;20037;-78
2022/07/16 11:29:17;;;;;;;2.85;1.60;;;;;;;;;;5036014;28;20074;-76
2022/07/16 11:31:43;;;;;;;3.38;1.60;;;;;;;;;;5031753;28;20444;-78
2022/07/16 11:34:09;;;;;;;3.03;1.85;;;;;;;;;;5029535;28;20020;-78
2022/07/16 11:36:36;;;;;;;2.05;1.60;;;;;;;;;;5033641;28;20468;-82
2022/07/16 11:39:02;;;;;;;2.47;1.65;;;;;;;;;;5032822;28;20032;-79
2022/07/16 11:41:28;;;;;;;2.28;1.70;;;;;;;;;;5030010;28;20024;-77
2022/07/16 11:43:54;;;;;;;7.85;2.20;;;;;;;;;;5041749;28;20631;-75
2022/07/16 11:46:20;;;;;;;5.40;1.70;;;;;;;;;;5038591;28;20029;-80
2022/07/16 11:48:45;;;;;;;2.00;1.80;;;;;;;;;;5027029;28;20129;-76
2022/07/16 11:51:11;;;;;;;2.97;1.55;;;;;;;;;;5029159;28;20507;-79
2022/07/16 11:53:37;;;;;;;2.55;1.85;;;;;;;;;;5042406;28;21254;-80
2022/07/16 11:56:04;;;;;;;3.35;1.92;;;;;;;;;;5040142;28;20033;-78
2022/07/16 11:58:29;;;;;;;2.53;1.83;;;;;;;;;;5034266;28;20021;-78
2022/07/16 12:00:55;;;;;;;2.25;1.40;;;;;;;;;;5036687;28;20033;-76
2022/07/16 12:03:20;;;;;;;2.70;1.90;;;;;;;;;;5031814;28;20026;-80
2022/07/16 12:05:46;;;;;;;3.60;2.00;;;;;;;;;;5028233;28;20028;-76
2022/07/16 12:08:12;;;;;;;3.25;1.70;;;;;;;;;;5032410;28;20036;-78
2022/07/16 12:10:37;;;;;;;3.55;1.42;;;;;;;;;;5029400;28;20028;-79
2022/07/16 12:13:04;;;;;;;2.72;1.85;;;;;;;;;;5038626;28;20033;-78
2022/07/16 12:15:29;;;;;;;2.67;1.70;;;;;;;;;;5038985;28;20032;-77
2022/07/16 12:17:55;;;;;;;3.85;1.70;;;;;;;;;;5027639;28;20345;-79
2022/07/16 12:20:26;;;;;;;1.95;1.77;;;;;;;;;;5028343;28;20357;-78
2022/07/16 12:22:52;;;;;;;2.65;1.85;;;;;;;;;;5028364;28;20117;-80
2022/07/16 12:25:22;;;;;;;3.42;1.77;;;;;;;;;;5021979;28;20488;-78
2022/07/16 12:27:49;;;;;;;2.00;1.80;;;;;;;;;;5027600;28;20052;-79
2022/07/16 12:30:15;;;;;;;2.10;1.90;;;;;;;;;;5028126;28;20029;-78
2022/07/16 12:32:47;;;;;;;4.70;1.75;;;;;;;;;;5028328;28;20326;-79
2022/07/16 12:35:31;;;;;;;2.33;2.10;;;;;;;;;;5026431;28;20032;-78
2022/07/16 12:37:56;;;;;;;3.30;1.80;;;;;;;;;;5028308;28;20028;-78
2022/07/16 12:40:21;;;;;;;1.98;1.88;;;;;;;;;;5026213;28;20366;-80
2022/07/16 12:42:47;;;;;;;2.22;1.88;;;;;;;;;;5028266;28;20052;-76
2022/07/16 12:45:12;;;;;;;2.65;1.67;;;;;;;;;;5013711;28;20040;-79
2022/07/16 12:47:37;;;;;;;3.38;1.75;;;;;;;;;;5031689;28;20025;-78
2022/07/16 12:50:04;;;;;;;2.25;1.52;;;;;;;;;;5029595;28;20037;-78
2022/07/16 12:52:29;;;;;;;1.67;1.50;;;;;;;;;;5028238;28;20048;-78
2022/07/16 13:00:22;;;;;;;2.42;1.80;;;;;;;;;;5029552;28;20036;-77
2022/07/16 13:02:47;;;;;;;4.03;1.75;;;;;;;;;;5030083;28;20025;-76
2022/07/16 13:05:13;;;;;;;3.40;1.73;;;;;;;;;;5028453;28;20045;-77
2022/07/16 13:07:38;;;;;;;2.40;1.90;;;;;;;;;;5029589;28;20032;-76
2022/07/16 13:10:03;;;;;;;3.85;1.98;;;;;;;;;;5037459;28;20033;-78
2022/07/16 13:12:29;;;;;;;2.20;1.80;;;;;;;;;;5026292;28;20024;-78
2022/07/16 13:14:54;;;;;;;2.80;1.80;;;;;;;;;;5028112;28;20028;-80
2022/07/16 13:17:20;;;;;;;1.92;1.67;;;;;;;;;;5027078;28;20075;-77
2022/07/16 13:19:45;;;;;;;2.83;1.73;;;;;;;;;;5025618;28;20518;-78
2022/07/16 13:22:10;;;;;;;2.33;1.83;;;;;;;;;;5025710;28;20416;-81
2022/07/16 13:24:36;;;;;;;1.92;1.83;;;;;;;;;;5026067;28;20497;-78
2022/07/16 13:27:01;;;;;;;2.85;1.70;;;;;;;;;;5027717;28;20054;-80
2022/07/16 13:29:26;;;;;;;3.72;1.67;;;;;;;;;;5040073;28;20647;-82
2022/07/16 13:31:52;;;;;;;3.13;1.90;;;;;;;;;;5039996;28;20032;-77
2022/07/16 13:34:18;;;;;;;4.03;1.40;;;;;;;;;;5037654;28;20950;-81
2022/07/16 13:36:43;;;;;;;3.22;2.00;;;;;;;;;;5025748;28;20021;-79
2022/07/16 13:39:09;;;;;;;3.90;1.63;;;;;;;;;;5038769;28;20095;-80
2022/07/16 13:41:34;;;;;;;2.40;1.80;;;;;;;;;;5031832;28;20352;-79
2022/07/16 13:43:59;;;;;;;2.25;1.70;;;;;;;;;;5028715;28;20074;-79
2022/07/16 13:46:25;;;;;;;4.65;1.80;;;;;;;;;;5031587;28;20033;-77
2022/07/16 13:48:50;;;;;;;2.35;1.80;;;;;;;;;;5026185;28;20029;-80
2022/07/16 13:51:15;;;;;;;2.92;1.90;;;;;;;;;;5011823;28;20036;-83
2022/07/16 13:53:41;;;;;;;5.10;1.90;;;;;;;;;;5026575;28;20045;-87
2022/07/16 13:56:06;;;;;;;3.10;1.60;;;;;;;;;;5028610;28;20036;-77
2022/07/16 13:58:32;;;;;;;1.45;1.35;;;;;;;;;;5031567;28;20432;-81
2022/07/16 14:00:59;;;;;;;2.88;1.90;;;;;;;;;;5030564;28;20033;-78
2022/07/16 14:03:25;;;;;;;3.05;1.80;;;;;;;;;;5022896;28;20104;-81
2022/07/16 14:05:56;;;;;;;5.28;1.83;;;;;;;;;;5034968;28;20037;-78
2022/07/16 14:08:22;;;;;;;2.58;1.85;;;;;;;;;;5043148;28;20041;-85
2022/07/16 14:10:47;;;;;;;2.97;1.77;;;;;;;;;;5031864;28;20026;-86
2022/07/16 14:13:13;;;;;;;1.52;1.38;;;;;;;;;;5031251;28;20113;-78
2022/07/16 14:15:38;;;;;;;2.55;1.90;;;;;;;;;;5022799;28;20193;-84
2022/07/16 14:18:08;;;;;;;2.03;1.83;;;;;;;;;;5027482;28;20153;-83
2022/07/16 14:20:35;;;;;;;2.92;1.70;;;;;;;;;;5031514;28;20033;-79
2022/07/16 14:23:00;;;;;;;3.63;1.77;;;;;;;;;;5032700;28;20025;-77
2022/07/16 14:25:26;;;;;;;1.75;1.65;;;;;;;;;;5031599;28;20351;-81
2022/07/16 14:27:52;;;;;;;5.22;1.85;;;;;;;;;;5031596;28;20045;-82
2022/07/16 14:30:18;;;;;;;2.55;1.90;;;;;;;;;;5031910;28;20462;-81
2022/07/16 14:32:44;;;;;;;2.28;1.80;;;;;;;;;;5032065;28;20044;-83
2022/07/16 14:35:10;;;;;;;1.75;1.65;;;;;;;;;;5031156;28;20029;-79
2022/07/16 14:37:37;;;;;;;1.80;1.70;;;;;;;;;;5032961;28;20583;-78
2022/07/16 14:40:03;;;;;;;1.92;1.63;;;;;;;;;;5033661;28;20045;-78
2022/07/16 14:42:28;;;;;;;2.20;1.90;;;;;;;;;;5032248;28;20131;-78
2022/07/16 14:44:53;;;;;;;2.33;2.00;;;;;;;;;;5028900;28;20190;-75
2022/07/16 14:47:19;;;;;;;2.35;1.80;;;;;;;;;;5029622;28;20456;-75
2022/07/16 14:49:44;;;;;;;3.03;1.70;;;;;;;;;;5028794;28;20025;-76
2022/07/16 14:52:09;;;;;;;2.55;1.80;;;;;;;;;;5030248;28;20055;-78
2022/07/16 14:54:35;;;;;;;2.00;1.77;;;;;;;;;;5031795;28;20037;-76